Time;durP1;ratioP1;P1;durP2;ratioP2;P2;SDS_P1;SDS_P2;PMS_P1;PMS_P2;Temp;Humidity;BMP_temperature;BMP_pressure;BME280_temperature;BME280_humidity;BME280_pressure;Samples;Min_cycle;Max_cycle;Signal;HPM_P1;HPM_P2
2021/05/02 00:02:11;;;;;;;11.63;3.25;;;18.80;76.90;;;;;;5088055;28;20109;-68
2021/05/02 00:04:38;;;;;;;9.90;2.90;;;18.80;76.90;;;;;;5088395;28;20054;-68
2021/05/02 00:07:03;;;;;;;9.27;2.40;;;18.80;77.20;;;;;;5089232;28;20549;-67
2021/05/02 00:09:30;;;;;;;5.20;2.35;;;18.80;77.40;;;;;;5088774;28;20035;-67
2021/05/02 00:11:56;;;;;;;8.85;2.22;;;18.60;77.70;;;;;;5088884;28;20099;-67
2021/05/02 00:14:22;;;;;;;14.70;2.78;;;18.60;77.80;;;;;;5088883;28;20123;-67
2021/05/02 00:16:51;;;;;;;9.30;2.47;;;18.50;78.10;;;;;;5087498;28;20139;-67
2021/05/02 00:19:19;;;;;;;12.23;2.83;;;18.60;77.90;;;;;;5088347;28;20439;-67
2021/05/02 00:21:46;;;;;;;5.20;2.33;;;18.60;77.80;;;;;;5088577;28;20028;-67
2021/05/02 00:24:12;;;;;;;11.30;2.70;;;18.50;78.00;;;;;;5088113;28;20044;-67
2021/05/02 00:26:38;;;;;;;8.18;2.53;;;18.60;77.70;;;;;;5088668;28;20020;-66
2021/05/02 00:29:04;;;;;;;9.82;2.63;;;18.50;77.80;;;;;;5088849;28;20024;-67
2021/05/02 00:31:30;;;;;;;19.83;5.15;;;18.40;78.10;;;;;;5088552;28;20113;-66
2021/05/02 00:33:56;;;;;;;10.15;2.53;;;18.50;78.00;;;;;;5088343;28;20509;-67
2021/05/02 00:36:22;;;;;;;12.60;3.33;;;18.40;78.90;;;;;;5087295;28;20578;-67
2021/05/02 00:38:48;;;;;;;7.95;3.22;;;18.30;78.50;;;;;;5088159;28;20032;-67
2021/05/02 00:41:21;;;;;;;8.90;2.83;;;18.20;79.20;;;;;;5088268;28;20026;-67
2021/05/02 00:43:58;;;;;;;9.20;3.85;;;18.10;79.70;;;;;;5088411;28;20335;-67
2021/05/02 00:46:38;;;;;;;7.35;2.70;;;18.10;79.90;;;;;;5088105;28;20051;-67
2021/05/02 00:49:19;;;;;;;9.75;2.88;;;17.90;80.00;;;;;;5088489;28;20038;-67
2021/05/02 00:51:56;;;;;;;9.90;2.95;;;17.80;80.60;;;;;;5087157;28;20157;-67
2021/05/02 00:54:37;;;;;;;8.63;3.08;;;17.80;80.80;;;;;;5085865;28;20044;-66
2021/05/02 00:57:30;;;;;;;7.85;2.15;;;17.70;80.70;;;;;;5088359;28;20031;-67
2021/05/02 01:00:01;;;;;;;6.05;2.65;;;17.70;80.70;;;;;;5081717;28;20040;-67
2021/05/02 01:02:28;;;;;;;8.65;3.08;;;17.60;81.10;;;;;;5087976;28;20032;-68
2021/05/02 01:04:58;;;;;;;9.70;2.30;;;17.50;81.50;;;;;;5087779;28;20031;-67
2021/05/02 01:07:33;;;;;;;7.05;2.70;;;17.40;81.80;;;;;;5088056;28;20024;-67
2021/05/02 01:10:01;;;;;;;9.10;2.72;;;17.30;82.00;;;;;;5087523;28;20024;-67
2021/05/02 01:12:29;;;;;;;8.43;2.60;;;17.30;82.30;;;;;;5086665;28;20069;-67
2021/05/02 01:14:58;;;;;;;8.20;2.70;;;17.30;82.60;;;;;;5087692;28;20036;-67
2021/05/02 01:17:25;;;;;;;9.10;2.90;;;17.50;82.20;;;;;;5087966;28;20476;-67
2021/05/02 01:19:52;;;;;;;9.98;3.67;;;17.60;81.90;;;;;;5086299;28;20028;-67
2021/05/02 01:22:20;;;;;;;8.35;3.00;;;17.60;82.10;;;;;;5086266;28;20024;-68
2021/05/02 01:24:51;;;;;;;14.10;4.22;;;17.70;82.10;;;;;;5087217;28;20051;-67
2021/05/02 01:27:29;;;;;;;7.63;3.30;;;17.80;81.50;;;;;;5087615;28;20145;-67
2021/05/02 01:29:56;;;;;;;14.85;3.88;;;17.80;81.20;;;;;;5087337;28;20051;-67
2021/05/02 01:32:23;;;;;;;11.85;3.35;;;17.70;81.50;;;;;;5087173;28;20390;-67
2021/05/02 01:34:49;;;;;;;10.55;3.22;;;17.70;82.00;;;;;;5086877;28;20075;-68
2021/05/02 01:37:15;;;;;;;7.35;3.10;;;17.60;82.50;;;;;;5085803;28;20391;-66
2021/05/02 01:39:41;;;;;;;10.82;2.90;;;17.70;82.30;;;;;;5086983;28;20032;-66
2021/05/02 01:42:08;;;;;;;7.43;2.88;;;17.70;82.30;;;;;;5087376;28;20013;-66
2021/05/02 01:44:33;;;;;;;7.35;3.17;;;17.60;82.70;;;;;;5087133;28;20582;-66
2021/05/02 01:47:24;;;;;;;7.03;3.30;;;17.40;83.30;;;;;;5087400;28;20020;-67
2021/05/02 01:50:00;;;;;;;8.52;3.45;;;17.40;83.60;;;;;;5086508;28;20095;-65
2021/05/02 01:52:27;;;;;;;16.25;3.70;;;17.40;83.90;;;;;;5085988;28;20020;-67
2021/05/02 01:54:54;;;;;;;10.95;3.70;;;17.50;83.40;;;;;;5086733;28;20032;-66
2021/05/02 01:57:25;;;;;;;9.98;3.55;;;17.50;83.50;;;;;;5086725;28;20028;-66
2021/05/02 01:59:55;;;;;;;14.80;4.78;;;17.30;84.00;;;;;;5086754;28;20107;-67
2021/05/02 02:02:24;;;;;;;10.80;3.38;;;17.20;84.30;;;;;;5085532;28;20400;-67
2021/05/02 02:04:52;;;;;;;11.55;3.40;;;17.30;84.60;;;;;;5087120;28;20028;-67
2021/05/02 02:07:19;;;;;;;11.25;3.80;;;17.40;84.90;;;;;;5086452;28;20027;-67
2021/05/02 02:09:45;;;;;;;16.85;3.88;;;17.50;84.00;;;;;;5086559;28;20027;-67
2021/05/02 02:12:11;;;;;;;18.27;3.63;;;17.50;83.90;;;;;;5086834;28;20012;-67
2021/05/02 02:14:38;;;;;;;12.20;3.42;;;17.50;84.00;;;;;;5086278;28;20043;-67
2021/05/02 02:17:06;;;;;;;10.85;3.70;;;17.60;83.40;;;;;;5086624;28;20370;-66
2021/05/02 02:19:32;;;;;;;13.85;4.10;;;17.60;83.30;;;;;;5086683;28;20040;-67
2021/05/02 02:21:59;;;;;;;11.77;3.60;;;17.60;83.80;;;;;;5084906;28;20415;-67
2021/05/02 02:24:47;;;;;;;12.85;4.60;;;17.50;84.60;;;;;;5085735;28;20434;-67
2021/05/02 02:27:14;;;;;;;16.63;4.03;;;17.40;84.50;;;;;;5086314;28;20504;-68
2021/05/02 02:29:44;;;;;;;22.00;3.95;;;17.30;84.70;;;;;;5086839;28;20051;-67
2021/05/02 02:32:13;;;;;;;21.95;4.10;;;17.40;83.60;;;;;;5086332;28;20044;-67
2021/05/02 02:34:45;;;;;;;12.80;3.80;;;17.40;83.60;;;;;;5086196;28;20036;-67
2021/05/02 02:37:17;;;;;;;21.08;5.10;;;17.50;83.30;;;;;;5086221;28;20023;-67
2021/05/02 02:39:51;;;;;;;15.68;4.28;;;17.50;83.80;;;;;;5086144;28;20124;-67
2021/05/02 02:42:18;;;;;;;16.48;5.75;;;17.50;84.20;;;;;;5086036;28;20024;-67
2021/05/02 02:44:54;;;;;;;14.27;4.22;;;17.50;85.10;;;;;;5085938;28;20028;-67
2021/05/02 02:47:21;;;;;;;17.98;4.90;;;17.50;85.90;;;;;;5085042;28;20059;-66
2021/05/02 02:49:58;;;;;;;16.48;4.90;;;17.50;86.50;;;;;;5086077;28;20055;-67
2021/05/02 02:52:26;;;;;;;11.50;4.50;;;17.20;87.50;;;;;;5085972;28;20707;-67
2021/05/02 02:55:02;;;;;;;16.20;5.07;;;17.00;89.10;;;;;;5085992;28;20040;-67
2021/05/02 02:57:32;;;;;;;15.38;5.07;;;17.00;89.50;;;;;;5086168;28;20073;-67
2021/05/02 02:59:59;;;;;;;13.00;5.00;;;16.80;89.40;;;;;;5086223;28;20475;-66
2021/05/02 03:02:29;;;;;;;11.70;4.78;;;16.80;90.00;;;;;;5085657;28;20048;-67
2021/05/02 03:04:56;;;;;;;16.65;4.82;;;16.80;90.10;;;;;;5086420;28;20052;-67
2021/05/02 03:07:23;;;;;;;14.15;5.10;;;16.80;89.40;;;;;;5085563;28;20046;-67
2021/05/02 03:09:50;;;;;;;15.38;4.57;;;16.70;89.40;;;;;;5086226;28;20059;-66
2021/05/02 03:12:22;;;;;;;19.52;5.45;;;16.70;88.80;;;;;;5085746;28;20024;-67
2021/05/02 03:14:50;;;;;;;23.13;5.63;;;16.90;85.70;;;;;;5086241;28;20040;-66
2021/05/02 03:17:20;;;;;;;19.15;5.05;;;17.00;84.30;;;;;;5085803;28;20016;-67
2021/05/02 03:19:52;;;;;;;26.25;5.68;;;17.20;84.80;;;;;;5086225;28;20032;-67
2021/05/02 03:22:56;;;;;;;19.42;4.05;;;17.20;84.40;;;;;;5084416;28;20494;-66
2021/05/02 03:25:24;;;;;;;18.60;4.28;;;17.40;83.90;;;;;;5078513;28;20035;-67
2021/05/02 03:28:15;;;;;;;15.80;3.53;;;17.40;83.40;;;;;;5085699;28;20030;-66
2021/05/02 03:30:42;;;;;;;14.77;5.43;;;17.30;83.40;;;;;;5074731;28;20424;-66
2021/05/02 03:33:11;;;;;;;13.73;3.65;;;17.40;83.40;;;;;;5085768;28;20097;-66
2021/05/02 03:35:40;;;;;;;19.88;4.10;;;17.30;83.70;;;;;;5084367;28;20040;-67
2021/05/02 03:38:38;;;;;;;19.50;3.78;;;17.30;83.90;;;;;;5084569;28;20055;-69
2021/05/02 03:41:04;;;;;;;18.63;4.18;;;17.30;83.70;;;;;;5085438;28;20032;-65
2021/05/02 03:43:30;;;;;;;13.13;3.40;;;17.20;84.20;;;;;;5085982;28;20477;-67
2021/05/02 03:45:55;;;;;;;16.80;4.57;;;17.20;84.30;;;;;;5085205;28;20480;-67
2021/05/02 03:48:21;;;;;;;19.15;3.88;;;17.20;84.80;;;;;;5085383;28;20032;-67
2021/05/02 03:50:47;;;;;;;12.18;3.55;;;17.20;85.30;;;;;;5085874;28;20449;-68
2021/05/02 03:53:12;;;;;;;20.40;4.07;;;17.20;85.60;;;;;;5086712;28;20497;-67
2021/05/02 03:55:46;;;;;;;22.77;5.18;;;17.20;85.40;;;;;;5089638;28;20573;-66
2021/05/02 03:58:16;;;;;;;21.00;4.95;;;17.10;86.10;;;;;;5088996;28;20074;-66
2021/05/02 04:00:43;;;;;;;24.52;6.03;;;17.00;88.50;;;;;;5089415;28;20721;-68
2021/05/02 04:03:13;;;;;;;22.80;6.43;;;16.70;90.90;;;;;;5088876;28;20123;-67
2021/05/02 04:05:39;;;;;;;15.00;5.18;;;16.40;92.00;;;;;;5089084;28;20467;-67
2021/05/02 04:08:05;;;;;;;25.70;6.10;;;16.30;91.90;;;;;;5088731;28;20127;-67
2021/05/02 04:10:32;;;;;;;19.80;5.82;;;16.10;92.60;;;;;;5088777;28;20201;-67
2021/05/02 04:12:57;;;;;;;25.42;6.85;;;16.00;93.00;;;;;;5089110;28;20032;-68
2021/05/02 04:15:23;;;;;;;21.73;6.60;;;15.90;93.30;;;;;;5089115;28;20085;-68
2021/05/02 04:17:49;;;;;;;20.20;6.25;;;15.90;93.90;;;;;;5088996;28;20046;-67
2021/05/02 04:20:15;;;;;;;19.65;6.32;;;15.80;94.10;;;;;;5088472;28;20067;-67
2021/05/02 04:22:40;;;;;;;19.75;5.65;;;15.70;94.10;;;;;;5088639;28;20222;-66
2021/05/02 04:25:07;;;;;;;26.58;7.28;;;15.70;94.10;;;;;;5088661;28;20506;-66
2021/05/02 04:27:32;;;;;;;17.77;7.35;;;15.70;94.30;;;;;;5088844;28;20040;-67
2021/05/02 04:29:58;;;;;;;20.20;6.68;;;15.70;94.50;;;;;;5088614;28;20077;-67
2021/05/02 04:32:24;;;;;;;21.23;7.40;;;15.70;94.70;;;;;;5088304;28;20044;-67
2021/05/02 04:34:51;;;;;;;25.55;8.25;;;15.70;94.70;;;;;;5088240;28;20063;-68
2021/05/02 04:37:17;;;;;;;20.02;7.70;;;15.70;95.10;;;;;;5088359;28;20024;-67
2021/05/02 04:39:43;;;;;;;27.33;6.65;;;15.70;95.30;;;;;;5088532;28;20088;-67
2021/05/02 04:42:09;;;;;;;24.10;7.88;;;15.70;95.30;;;;;;5088490;28;20396;-67
2021/05/02 04:44:35;;;;;;;32.13;9.43;;;15.60;95.30;;;;;;5088353;28;20032;-67
2021/05/02 04:47:00;;;;;;;28.83;11.70;;;15.60;95.50;;;;;;5088798;28;20023;-67
2021/05/02 04:49:26;;;;;;;30.48;11.20;;;15.60;95.50;;;;;;5088108;28;20074;-66
2021/05/02 04:51:52;;;;;;;26.75;11.00;;;15.60;95.40;;;;;;5088053;28;20028;-67
2021/05/02 04:54:19;;;;;;;21.85;9.57;;;15.60;95.60;;;;;;5088181;28;20024;-68
2021/05/02 04:56:45;;;;;;;21.98;9.43;;;15.60;95.50;;;;;;5087933;28;20625;-67
2021/05/02 04:59:10;;;;;;;26.95;7.97;;;15.60;95.70;;;;;;5088312;28;20123;-67
2021/05/02 05:01:38;;;;;;;22.20;7.57;;;15.60;95.60;;;;;;5088094;28;20483;-67
2021/05/02 05:04:05;;;;;;;22.05;7.07;;;15.70;95.60;;;;;;5087234;28;20024;-66
2021/05/02 05:06:31;;;;;;;15.93;6.25;;;15.70;95.20;;;;;;5086277;28;20504;-68
2021/05/02 05:08:57;;;;;;;21.85;7.90;;;15.70;95.20;;;;;;5086178;28;20028;-67
2021/05/02 05:11:23;;;;;;;19.30;7.60;;;15.70;95.30;;;;;;5087832;28;20028;-67
2021/05/02 05:13:49;;;;;;;;;;;15.60;95.60;;;;;;5088280;28;20040;-67
2021/05/02 05:16:14;;;;;;;23.50;7.95;;;15.70;95.70;;;;;;5087713;28;20375;-66
2021/05/02 05:18:40;;;;;;;21.55;7.07;;;15.70;95.70;;;;;;5087380;28;20035;-67
2021/05/02 05:21:06;;;;;;;26.95;6.93;;;15.80;95.50;;;;;;5087106;28;20127;-67
2021/05/02 05:23:31;;;;;;;;;;;15.90;95.10;;;;;;5087955;28;20039;-67
2021/05/02 05:25:58;;;;;;;23.48;6.50;;;15.80;95.10;;;;;;5087489;28;20372;-67
2021/05/02 05:28:23;;;;;;;16.83;6.63;;;15.80;95.10;;;;;;5086962;28;20408;-66
2021/05/02 05:30:53;;;;;;;17.20;6.57;;;15.90;95.00;;;;;;5087587;28;20036;-67
2021/05/02 05:33:19;;;;;;;22.52;6.75;;;15.90;94.90;;;;;;5086866;28;20055;-67
2021/05/02 05:35:45;;;;;;;21.67;6.93;;;15.90;94.90;;;;;;5087249;28;20700;-68
2021/05/02 05:38:13;;;;;;;19.45;6.57;;;15.90;95.00;;;;;;5087102;28;20405;-67
2021/05/02 05:40:39;;;;;;;17.63;7.70;;;15.90;95.20;;;;;;5087388;28;20028;-68
2021/05/02 05:43:05;;;;;;;17.48;6.65;;;15.90;95.10;;;;;;5087394;28;20023;-67
2021/05/02 05:45:32;;;;;;;20.75;6.72;;;16.00;95.10;;;;;;5087142;28;20032;-67
2021/05/02 05:47:58;;;;;;;21.35;7.38;;;16.10;95.20;;;;;;5087316;28;20020;-67
2021/05/02 05:50:25;;;;;;;18.10;6.78;;;16.20;94.70;;;;;;5086664;28;20027;-67
2021/05/02 05:52:52;;;;;;;17.95;6.32;;;16.30;94.70;;;;;;5085373;28;20021;-67
2021/05/02 05:55:18;;;;;;;23.40;8.40;;;16.50;94.50;;;;;;5087028;28;20036;-70
2021/05/02 05:57:51;;;;;;;30.13;6.65;;;16.70;94.30;;;;;;5086785;28;20115;-68
2021/05/02 06:00:19;;;;;;;17.17;6.68;;;16.80;94.20;;;;;;5086767;28;20032;-68
2021/05/02 06:02:45;;;;;;;27.02;6.57;;;16.90;94.10;;;;;;5086704;28;20034;-69
2021/05/02 06:05:11;;;;;;;16.25;5.38;;;17.00;93.80;;;;;;5085510;28;20047;-68
2021/05/02 06:07:37;;;;;;;19.10;6.05;;;17.10;93.30;;;;;;5086412;28;20050;-66
2021/05/02 06:10:05;;;;;;;16.77;5.57;;;17.10;92.90;;;;;;5086523;28;20121;-67
2021/05/02 06:12:30;;;;;;;14.63;5.15;;;17.30;92.90;;;;;;5086706;28;20032;-70
2021/05/02 06:14:56;;;;;;;13.25;5.22;;;17.40;92.60;;;;;;5086447;28;20083;-68
2021/05/02 06:17:22;;;;;;;12.43;4.40;;;17.50;92.50;;;;;;5086437;28;20106;-68
2021/05/02 06:19:47;;;;;;;14.20;5.03;;;17.60;92.40;;;;;;5086806;28;20495;-67
2021/05/02 06:22:13;;;;;;;21.10;5.15;;;17.80;91.20;;;;;;5085862;28;20039;-68
2021/05/02 06:24:39;;;;;;;15.45;4.25;;;18.10;90.40;;;;;;5085347;28;20039;-68
2021/05/02 06:27:05;;;;;;;17.40;5.85;;;18.60;90.50;;;;;;5086647;28;20012;-67
2021/05/02 06:29:30;;;;;;;24.10;5.32;;;19.70;85.70;;;;;;5086416;28;20032;-68
2021/05/02 06:31:56;;;;;;;16.90;4.70;;;20.20;82.20;;;;;;5086464;28;20055;-68
2021/05/02 06:34:22;;;;;;;13.55;4.65;;;20.60;79.90;;;;;;5086293;28;20046;-68
2021/05/02 06:36:48;;;;;;;16.67;4.68;;;21.00;80.30;;;;;;5085748;28;20516;-68
2021/05/02 06:39:14;;;;;;;14.18;4.55;;;21.90;75.80;;;;;;5086001;28;20043;-67
2021/05/02 06:41:44;;;;;;;15.80;3.97;;;22.60;74.70;;;;;;5085151;28;20032;-68
2021/05/02 06:44:11;;;;;;;13.05;4.10;;;22.70;74.30;;;;;;5086022;28;20013;-68
2021/05/02 06:46:38;;;;;;;16.52;4.40;;;23.00;68.40;;;;;;5085953;28;20111;-69
2021/05/02 06:49:06;;;;;;;14.13;4.25;;;23.20;66.70;;;;;;5086573;28;20020;-68
2021/05/02 06:51:32;;;;;;;15.98;4.13;;;22.70;69.90;;;;;;5085905;28;20408;-68
2021/05/02 06:53:58;;;;;;;18.38;4.47;;;22.70;72.00;;;;;;5086149;28;20036;-69
2021/05/02 06:56:24;;;;;;;13.95;3.97;;;23.40;71.10;;;;;;5086179;28;20062;-69
2021/05/02 07:01:39;;;;;;;18.50;5.60;;;24.50;67.50;;;;;;5085847;28;20031;-69
2021/05/02 07:04:04;;;;;;;23.17;5.65;;;24.80;66.00;;;;;;5085931;28;20021;-69
2021/05/02 07:06:31;;;;;;;22.55;5.68;;;25.30;63.90;;;;;;5085804;28;20452;-69
2021/05/02 07:08:56;;;;;;;13.50;5.10;;;25.50;62.20;;;;;;5085799;28;20035;-69
2021/05/02 07:11:23;;;;;;;20.77;5.38;;;25.70;61.10;;;;;;5086257;28;20036;-67
2021/05/02 07:13:49;;;;;;;15.60;4.45;;;26.20;61.30;;;;;;5085890;28;20401;-67
2021/05/02 07:16:15;;;;;;;24.42;6.18;;;26.60;58.60;;;;;;5085470;28;20773;-67
2021/05/02 07:18:41;;;;;;;17.30;4.38;;;26.50;59.40;;;;;;5085813;28;20023;-66
2021/05/02 07:21:07;;;;;;;18.40;5.68;;;26.30;59.70;;;;;;5085711;28;20024;-68
2021/05/02 07:23:38;;;;;;;13.65;4.38;;;25.50;61.00;;;;;;5086152;28;20107;-69
2021/05/02 07:26:04;;;;;;;14.82;4.38;;;24.80;63.30;;;;;;5085934;28;20028;-68
2021/05/02 07:28:29;;;;;;;16.67;5.00;;;24.10;66.80;;;;;;5089460;28;20478;-68
2021/05/02 07:30:55;;;;;;;16.77;4.88;;;23.70;67.50;;;;;;5089616;28;20032;-69
2021/05/02 07:33:22;;;;;;;14.95;4.53;;;23.20;69.20;;;;;;5089901;28;20859;-68
2021/05/02 07:35:49;;;;;;;14.90;4.82;;;22.90;70.20;;;;;;5089297;28;20040;-68
2021/05/02 07:38:15;;;;;;;22.75;5.40;;;22.70;71.30;;;;;;5089365;28;20024;-68
2021/05/02 07:40:41;;;;;;;16.33;4.90;;;22.60;72.10;;;;;;5089296;28;20042;-68
2021/05/02 07:43:07;;;;;;;14.63;3.97;;;22.40;73.00;;;;;;5089562;28;20024;-68
2021/05/02 07:45:33;;;;;;;19.65;5.32;;;22.30;73.30;;;;;;5089452;28;20054;-68
2021/05/02 07:47:58;;;;;;;20.55;4.90;;;22.20;74.80;;;;;;5089655;28;20039;-66
2021/05/02 07:50:24;;;;;;;21.48;4.90;;;21.90;74.50;;;;;;5088570;28;20028;-68
2021/05/02 07:52:50;;;;;;;21.13;4.15;;;21.80;75.10;;;;;;5087911;28;20059;-67
2021/05/02 07:55:15;;;;;;;22.02;4.78;;;21.70;76.00;;;;;;5088103;28;20050;-67
2021/05/02 07:57:41;;;;;;;13.55;4.60;;;21.80;75.50;;;;;;5088248;28;20069;-67
2021/05/02 08:00:07;;;;;;;16.50;3.67;;;22.00;75.00;;;;;;5089021;28;20059;-67
2021/05/02 08:02:33;;;;;;;17.52;4.40;;;22.70;73.20;;;;;;5089139;28;20028;-67
2021/05/02 08:04:59;;;;;;;21.30;3.10;;;23.50;70.40;;;;;;5088616;28;20452;-67
2021/05/02 08:07:24;;;;;;;19.90;3.15;;;23.80;65.80;;;;;;5087965;28;20024;-67
2021/05/02 08:09:51;;;;;;;13.38;2.58;;;23.70;65.10;;;;;;5088974;28;20439;-67
2021/05/02 08:12:17;;;;;;;8.80;2.50;;;23.30;66.40;;;;;;5088895;28;20032;-67
2021/05/02 08:14:43;;;;;;;11.48;2.13;;;22.90;66.20;;;;;;5088761;28;20794;-67
2021/05/02 08:17:09;;;;;;;19.58;2.08;;;22.60;65.60;;;;;;5089147;28;20039;-67
2021/05/02 08:19:34;;;;;;;9.05;1.95;;;22.30;65.00;;;;;;5088600;28;20032;-66
2021/05/02 08:22:02;;;;;;;10.63;1.83;;;22.10;66.90;;;;;;5088467;28;20035;-67
2021/05/02 08:24:29;;;;;;;16.45;1.77;;;21.90;67.30;;;;;;5088972;28;20051;-67
2021/05/02 08:26:55;;;;;;;18.70;1.95;;;21.70;67.90;;;;;;5088438;28;20028;-67
2021/05/02 08:29:21;;;;;;;12.65;2.10;;;21.50;68.30;;;;;;5088792;28;20503;-67
2021/05/02 08:31:47;;;;;;;16.17;2.22;;;21.40;69.20;;;;;;5087404;28;20089;-67
2021/05/02 08:34:12;;;;;;;8.73;2.72;;;21.30;68.80;;;;;;5088279;28;20507;-67
2021/05/02 08:36:38;;;;;;;9.57;2.05;;;21.20;70.90;;;;;;5088212;28;20024;-67
2021/05/02 08:39:04;;;;;;;24.10;2.72;;;21.20;70.80;;;;;;5088095;28;20039;-66
2021/05/02 08:41:30;;;;;;;13.20;1.70;;;21.40;71.20;;;;;;5088350;28;20050;-67
2021/05/02 08:43:57;;;;;;;10.65;1.27;;;21.60;71.00;;;;;;5088512;28;20089;-67
2021/05/02 08:46:24;;;;;;;10.77;1.40;;;22.00;66.70;;;;;;5088498;28;20271;-68
2021/05/02 08:48:50;;;;;;;9.32;2.08;;;21.90;65.40;;;;;;5088447;28;20108;-67
2021/05/02 08:51:16;;;;;;;8.23;0.90;;;21.50;63.00;;;;;;5087962;28;20050;-69
2021/05/02 08:53:42;;;;;;;4.10;1.02;;;21.00;65.10;;;;;;5088428;28;20024;-67
2021/05/02 08:56:08;;;;;;;10.73;1.08;;;20.50;68.20;;;;;;5088046;28;20404;-67
2021/05/02 08:58:34;;;;;;;7.10;1.30;;;20.20;70.10;;;;;;5088188;28;20046;-67
2021/05/02 09:01:01;;;;;;;4.68;1.00;;;20.10;69.70;;;;;;5086509;28;20024;-67
2021/05/02 09:03:43;;;;;;;2.13;0.70;;;20.20;69.00;;;;;;5087839;28;20024;-66
2021/05/02 09:06:18;;;;;;;5.50;0.50;;;20.80;66.30;;;;;;5087787;28;20024;-66
2021/05/02 09:08:44;;;;;;;3.45;0.70;;;21.30;62.60;;;;;;5087731;28;20715;-66
2021/05/02 09:11:10;;;;;;;4.03;0.50;;;21.50;61.60;;;;;;5086560;28;20032;-67
2021/05/02 09:13:51;;;;;;;2.88;0.65;;;21.50;62.20;;;;;;5086419;28;20034;-67
2021/05/02 09:16:18;;;;;;;2.17;0.75;;;21.50;62.50;;;;;;5087877;28;20597;-66
2021/05/02 09:18:48;;;;;;;5.45;0.82;;;21.60;62.00;;;;;;5087175;28;20021;-67
2021/05/02 09:21:18;;;;;;;3.00;0.50;;;21.70;62.30;;;;;;5087587;28;20077;-67
2021/05/02 09:23:44;;;;;;;3.58;0.40;;;21.80;61.00;;;;;;5085785;28;20055;-67
2021/05/02 09:26:27;;;;;;;1.10;0.40;;;22.20;58.40;;;;;;5087794;28;20024;-67
2021/05/02 09:28:55;;;;;;;2.55;0.50;;;22.30;57.80;;;;;;5087503;28;20035;-68
2021/05/02 09:31:30;;;;;;;6.72;0.63;;;22.70;58.30;;;;;;5086379;28;20500;-67
2021/05/02 09:34:12;;;;;;;1.23;0.60;;;23.40;56.90;;;;;;5085513;28;20415;-67
2021/05/02 09:36:52;;;;;;;3.00;0.60;;;23.90;53.30;;;;;;5087362;28;20024;-68
2021/05/02 09:39:42;;;;;;;4.95;1.23;;;23.90;51.70;;;;;;5086303;28;20020;-67
2021/05/02 09:42:23;;;;;;;2.05;0.60;;;23.30;53.00;;;;;;5086828;28;20024;-67
2021/05/02 09:44:53;;;;;;;1.30;0.50;;;22.70;52.60;;;;;;5081292;28;20139;-66
2021/05/02 09:47:34;;;;;;;0.95;0.50;;;22.00;54.20;;;;;;5087027;28;20028;-67
2021/05/02 09:50:17;;;;;;;0.95;0.30;;;21.40;54.60;;;;;;5086185;28;20059;-69
2021/05/02 09:52:45;;;;;;;0.57;0.30;;;21.10;53.80;;;;;;5087160;28;20032;-68
2021/05/02 09:55:34;;;;;;;1.48;0.40;;;20.50;55.40;;;;;;5086755;28;20040;-67
2021/05/02 09:58:19;;;;;;;0.40;0.30;;;20.10;56.90;;;;;;5086886;28;20043;-67
2021/05/02 10:00:45;;;;;;;0.82;0.50;;;19.70;58.70;;;;;;5085236;28;20035;-68
2021/05/02 10:03:18;;;;;;;1.50;0.30;;;19.60;60.70;;;;;;5086401;28;20565;-68
2021/05/02 10:06:04;;;;;;;0.45;0.25;;;19.90;59.20;;;;;;5086377;28;20469;-68
2021/05/02 10:08:32;;;;;;;1.45;0.35;;;20.30;57.40;;;;;;5087006;28;20489;-67
2021/05/02 10:11:00;;;;;;;1.85;0.30;;;20.40;58.30;;;;;;5086778;28;20066;-67
2021/05/02 10:13:26;;;;;;;0.63;0.30;;;20.40;58.30;;;;;;5085565;28;20877;-67
2021/05/02 10:15:51;;;;;;;1.95;0.30;;;20.80;57.10;;;;;;5086134;28;20032;-67
2021/05/02 10:18:17;;;;;;;0.77;0.40;;;20.70;57.50;;;;;;5084358;28;20050;-67
2021/05/02 10:20:44;;;;;;;1.98;0.30;;;20.50;58.50;;;;;;5083333;28;20039;-67
2021/05/02 10:23:12;;;;;;;0.77;0.25;;;20.40;56.90;;;;;;5084836;28;20151;-67
2021/05/02 10:25:38;;;;;;;3.40;0.40;;;20.30;57.80;;;;;;5081108;28;20044;-67
2021/05/02 10:28:05;;;;;;;1.48;0.50;;;20.00;59.10;;;;;;5084242;28;20086;-66
2021/05/02 10:30:43;;;;;;;5.88;0.30;;;19.80;59.00;;;;;;5085453;28;20078;-67
2021/05/02 10:33:11;;;;;;;1.55;0.30;;;19.50;58.90;;;;;;5080189;28;20048;-66
2021/05/02 10:35:59;;;;;;;3.60;0.30;;;19.30;59.90;;;;;;5083919;28;20571;-67
2021/05/02 10:38:46;;;;;;;0.65;0.40;;;19.30;61.10;;;;;;5084002;28;20043;-66
2021/05/02 10:41:39;;;;;;;0.73;0.30;;;19.30;61.80;;;;;;5083481;28;20040;-66
2021/05/02 10:44:07;;;;;;;5.93;0.20;;;19.40;59.40;;;;;;5074680;28;20067;-67
2021/05/02 10:46:42;;;;;;;1.15;0.30;;;19.40;58.10;;;;;;5085819;28;20054;-67
2021/05/02 10:49:19;;;;;;;0.70;0.25;;;19.40;59.30;;;;;;5085310;28;20024;-67
2021/05/02 10:51:53;;;;;;;1.80;0.30;;;19.50;58.00;;;;;;5085593;28;20080;-67
2021/05/02 10:54:21;;;;;;;1.08;0.55;;;19.50;57.60;;;;;;5084545;28;20032;-68
2021/05/02 10:56:57;;;;;;;0.98;0.35;;;19.50;56.40;;;;;;5085116;28;20063;-66
2021/05/02 10:59:25;;;;;;;1.38;0.40;;;19.50;57.40;;;;;;5086408;28;20032;-66
2021/05/02 11:01:54;;;;;;;0.93;0.30;;;19.40;55.90;;;;;;5085733;28;20032;-65
2021/05/02 11:04:21;;;;;;;0.85;0.30;;;19.40;56.30;;;;;;5086745;28;20035;-67
2021/05/02 11:06:51;;;;;;;1.75;0.30;;;19.30;56.70;;;;;;5088101;28;20485;-67
2021/05/02 11:09:18;;;;;;;8.25;0.43;;;19.20;56.30;;;;;;5088366;28;20035;-68
2021/05/02 11:11:47;;;;;;;0.50;0.30;;;19.10;56.50;;;;;;5089324;28;20031;-69
2021/05/02 11:14:21;;;;;;;1.85;0.20;;;19.10;57.20;;;;;;5089407;28;20039;-68
2021/05/02 11:17:10;;;;;;;0.70;0.40;;;19.10;56.90;;;;;;5087693;28;20038;-68
2021/05/02 11:19:35;;;;;;;0.50;0.30;;;19.10;57.20;;;;;;5087611;28;20534;-68
2021/05/02 11:22:05;;;;;;;0.65;0.20;;;19.10;58.80;;;;;;5089012;28;20024;-68
2021/05/02 11:24:52;;;;;;;0.40;0.20;;;19.10;60.20;;;;;;5088445;28;20028;-68
2021/05/02 11:27:53;;;;;;;0.75;0.30;;;19.00;60.40;;;;;;5088961;28;20078;-68
2021/05/02 11:30:21;;;;;;;1.13;0.40;;;19.00;60.60;;;;;;5088635;28;20043;-67
2021/05/02 11:32:49;;;;;;;0.63;0.20;;;19.10;60.10;;;;;;5087934;28;20504;-67
2021/05/02 11:35:38;;;;;;;0.85;0.25;;;19.10;58.70;;;;;;5089268;28;20139;-68
2021/05/02 11:38:05;;;;;;;2.67;0.30;;;19.10;57.60;;;;;;5090046;28;20028;-67
2021/05/02 11:40:30;;;;;;;1.30;0.40;;;19.00;59.10;;;;;;5089424;28;20111;-68
2021/05/02 11:42:59;;;;;;;1.02;0.57;;;19.00;60.70;;;;;;5089814;28;20107;-66
2021/05/02 11:45:58;;;;;;;0.25;0.20;;;19.00;59.20;;;;;;5089778;28;20028;-68
2021/05/02 11:48:33;;;;;;;0.25;0.20;;;19.20;58.10;;;;;;5088876;28;20039;-67
2021/05/02 11:51:00;;;;;;;0.47;0.22;;;19.20;60.50;;;;;;5089299;28;20028;-67
2021/05/02 11:53:47;;;;;;;1.17;0.30;;;19.40;58.80;;;;;;5084733;28;20105;-69
2021/05/02 11:56:30;;;;;;;4.78;0.32;;;19.50;57.60;;;;;;5077369;28;20274;-69
2021/05/02 11:59:02;;;;;;;2.25;0.30;;;19.60;57.50;;;;;;5068551;28;20028;-68
2021/05/02 12:01:30;;;;;;;2.75;0.30;;;19.50;57.40;;;;;;5066892;28;20489;-68
2021/05/02 12:04:17;;;;;;;0.57;0.20;;;19.30;56.90;;;;;;5067667;28;20253;-70
2021/05/02 12:06:43;;;;;;;2.83;0.30;;;19.10;57.90;;;;;;5069200;28;20035;-67
2021/05/02 12:09:12;;;;;;;0.88;0.45;;;19.10;56.90;;;;;;5067067;28;20036;-66
2021/05/02 12:11:39;;;;;;;0.90;0.20;;;19.10;57.10;;;;;;5068616;28;20048;-68
2021/05/02 12:14:05;;;;;;;0.68;0.20;;;19.00;57.00;;;;;;5074734;28;20078;-67
2021/05/02 12:16:31;;;;;;;4.18;0.30;;;18.90;57.00;;;;;;5076894;28;20454;-67
2021/05/02 12:18:58;;;;;;;0.50;0.30;;;18.90;55.50;;;;;;5077893;28;20029;-66
2021/05/02 12:21:30;;;;;;;3.70;0.30;;;18.80;55.50;;;;;;5077201;28;20036;-67
2021/05/02 12:24:20;;;;;;;0.60;0.38;;;18.60;57.40;;;;;;5077198;28;20268;-68
2021/05/02 12:26:51;;;;;;;0.70;0.35;;;18.60;57.60;;;;;;5072619;28;20039;-67
2021/05/02 12:29:19;;;;;;;0.73;0.30;;;18.50;58.60;;;;;;5068781;28;20142;-67
2021/05/02 12:32:01;;;;;;;2.83;0.38;;;18.50;58.30;;;;;;5068163;28;20037;-65
2021/05/02 12:34:30;;;;;;;0.47;0.30;;;18.40;57.90;;;;;;5068391;28;20021;-67
2021/05/02 12:36:57;;;;;;;4.78;0.30;;;18.30;58.90;;;;;;5068543;28;20032;-67
2021/05/02 12:39:34;;;;;;;0.90;0.30;;;18.40;57.80;;;;;;5067011;28;20097;-67
2021/05/02 12:42:00;;;;;;;0.70;0.30;;;18.40;57.40;;;;;;5068357;28;20032;-67
2021/05/02 12:44:28;;;;;;;0.77;0.35;;;18.30;57.90;;;;;;5067934;28;20035;-67
2021/05/02 12:46:55;;;;;;;3.92;0.40;;;18.30;57.00;;;;;;5067809;28;20040;-67
2021/05/02 12:49:27;;;;;;;3.70;0.30;;;18.10;59.20;;;;;;5068355;28;20111;-67
2021/05/02 12:52:05;;;;;;;3.25;0.30;;;18.10;59.70;;;;;;5067973;28;20028;-67
2021/05/02 12:54:36;;;;;;;3.72;0.30;;;18.10;59.00;;;;;;5068165;28;20079;-67
2021/05/02 12:57:03;;;;;;;1.88;0.40;;;18.10;60.10;;;;;;5067723;28;20028;-67